sensor_id;sensor_type;location;lat;lon;timestamp;P1;durP1;ratioP1;P2;durP2;ratioP2
57327;SDS011;43162;51.040;18.244;2023-03-20T00:01:12;42.20;;;19.40;;
57327;SDS011;43162;51.040;18.244;2023-03-20T00:03:48;36.20;;;19.00;;
57327;SDS011;43162;51.040;18.244;2023-03-20T00:06:15;43.80;;;18.00;;
57327;SDS011;43162;51.040;18.244;2023-03-20T00:08:42;37.80;;;18.60;;
57327;SDS011;43162;51.040;18.244;2023-03-20T00:11:32;38.20;;;19.50;;
57327;SDS011;43162;51.040;18.244;2023-03-20T00:13:59;34.70;;;17.80;;
57327;SDS011;43162;51.040;18.244;2023-03-20T00:16:31;36.80;;;18.30;;
57327;SDS011;43162;51.040;18.244;2023-03-20T00:18:58;38.50;;;20.80;;
57327;SDS011;43162;51.040;18.244;2023-03-20T00:21:24;34.00;;;19.20;;
57327;SDS011;43162;51.040;18.244;2023-03-20T00:23:50;39.00;;;20.60;;
57327;SDS011;43162;51.040;18.244;2023-03-20T00:26:17;44.50;;;22.10;;
57327;SDS011;43162;51.040;18.244;2023-03-20T00:28:44;38.20;;;20.60;;
57327;SDS011;43162;51.040;18.244;2023-03-20T00:31:25;36.40;;;19.60;;
57327;SDS011;43162;51.040;18.244;2023-03-20T00:33:52;39.20;;;20.10;;
57327;SDS011;43162;51.040;18.244;2023-03-20T00:36:19;39.00;;;19.00;;
57327;SDS011;43162;51.040;18.244;2023-03-20T00:38:45;40.00;;;20.60;;
57327;SDS011;43162;51.040;18.244;2023-03-20T00:43:56;37.00;;;19.60;;
57327;SDS011;43162;51.040;18.244;2023-03-20T00:46:27;39.90;;;20.40;;
57327;SDS011;43162;51.040;18.244;2023-03-20T00:48:55;39.30;;;21.30;;
57327;SDS011;43162;51.040;18.244;2023-03-20T00:51:21;36.50;;;20.80;;
57327;SDS011;43162;51.040;18.244;2023-03-20T00:53:46;42.10;;;20.30;;
57327;SDS011;43162;51.040;18.244;2023-03-20T00:58:59;53.80;;;29.70;;
57327;SDS011;43162;51.040;18.244;2023-03-20T01:01:25;51.10;;;24.80;;
57327;SDS011;43162;51.040;18.244;2023-03-20T01:03:52;50.50;;;23.40;;
57327;SDS011;43162;51.040;18.244;2023-03-20T01:06:18;44.80;;;24.70;;
57327;SDS011;43162;51.040;18.244;2023-03-20T01:08:43;44.30;;;24.30;;
57327;SDS011;43162;51.040;18.244;2023-03-20T01:11:10;42.70;;;22.80;;
57327;SDS011;43162;51.040;18.244;2023-03-20T01:13:36;41.00;;;23.00;;
57327;SDS011;43162;51.040;18.244;2023-03-20T01:16:02;43.30;;;23.10;;
57327;SDS011;43162;51.040;18.244;2023-03-20T01:18:28;40.30;;;22.80;;
57327;SDS011;43162;51.040;18.244;2023-03-20T01:20:54;39.40;;;22.60;;
57327;SDS011;43162;51.040;18.244;2023-03-20T01:23:20;39.80;;;22.20;;
57327;SDS011;43162;51.040;18.244;2023-03-20T01:25:47;52.10;;;25.40;;
57327;SDS011;43162;51.040;18.244;2023-03-20T01:28:15;45.50;;;21.80;;
57327;SDS011;43162;51.040;18.244;2023-03-20T01:30:43;43.80;;;24.00;;
57327;SDS011;43162;51.040;18.244;2023-03-20T01:33:19;41.60;;;23.40;;
57327;SDS011;43162;51.040;18.244;2023-03-20T01:35:46;44.30;;;22.80;;
57327;SDS011;43162;51.040;18.244;2023-03-20T01:38:14;44.80;;;23.80;;
57327;SDS011;43162;51.040;18.244;2023-03-20T01:43:34;41.80;;;23.00;;
57327;SDS011;43162;51.040;18.244;2023-03-20T01:46:02;39.90;;;23.10;;
57327;SDS011;43162;51.040;18.244;2023-03-20T01:53:50;42.00;;;22.80;;
57327;SDS011;43162;51.040;18.244;2023-03-20T01:56:18;47.00;;;22.20;;
57327;SDS011;43162;51.040;18.244;2023-03-20T01:58:45;44.10;;;24.00;;
57327;SDS011;43162;51.040;18.244;2023-03-20T02:01:17;48.90;;;23.60;;
57327;SDS011;43162;51.040;18.244;2023-03-20T02:03:44;44.60;;;23.10;;
57327;SDS011;43162;51.040;18.244;2023-03-20T02:06:13;46.10;;;24.20;;
57327;SDS011;43162;51.040;18.244;2023-03-20T02:08:45;49.00;;;23.80;;
57327;SDS011;43162;51.040;18.244;2023-03-20T02:11:13;44.40;;;23.50;;
57327;SDS011;43162;51.040;18.244;2023-03-20T02:13:40;46.20;;;24.60;;
57327;SDS011;43162;51.040;18.244;2023-03-20T02:16:09;54.80;;;26.50;;
57327;SDS011;43162;51.040;18.244;2023-03-20T02:18:36;47.80;;;24.10;;
57327;SDS011;43162;51.040;18.244;2023-03-20T02:45:31;52.50;;;26.30;;
57327;SDS011;43162;51.040;18.244;2023-03-20T03:01:40;57.60;;;29.70;;
57327;SDS011;43162;51.040;18.244;2023-03-20T03:04:09;51.90;;;27.10;;
57327;SDS011;43162;51.040;18.244;2023-03-20T03:06:39;50.20;;;25.20;;
57327;SDS011;43162;51.040;18.244;2023-03-20T03:11:53;47.80;;;25.50;;
57327;SDS011;43162;51.040;18.244;2023-03-20T03:14:27;49.70;;;26.00;;
57327;SDS011;43162;51.040;18.244;2023-03-20T03:16:57;44.80;;;25.10;;
57327;SDS011;43162;51.040;18.244;2023-03-20T03:19:25;53.40;;;27.90;;
57327;SDS011;43162;51.040;18.244;2023-03-20T03:21:52;51.70;;;28.90;;
57327;SDS011;43162;51.040;18.244;2023-03-20T03:24:22;51.30;;;27.10;;
57327;SDS011;43162;51.040;18.244;2023-03-20T03:27:00;42.20;;;25.50;;
57327;SDS011;43162;51.040;18.244;2023-03-20T03:29:29;52.40;;;28.70;;
57327;SDS011;43162;51.040;18.244;2023-03-20T03:31:59;51.20;;;28.20;;
57327;SDS011;43162;51.040;18.244;2023-03-20T03:34:27;50.80;;;29.00;;
57327;SDS011;43162;51.040;18.244;2023-03-20T03:36:55;51.40;;;27.90;;
57327;SDS011;43162;51.040;18.244;2023-03-20T03:45:10;46.90;;;25.60;;
57327;SDS011;43162;51.040;18.244;2023-03-20T03:50:16;56.80;;;28.20;;
57327;SDS011;43162;51.040;18.244;2023-03-20T03:52:46;53.20;;;28.60;;
57327;SDS011;43162;51.040;18.244;2023-03-20T03:55:15;58.10;;;31.10;;
57327;SDS011;43162;51.040;18.244;2023-03-20T03:57:49;51.10;;;26.50;;
57327;SDS011;43162;51.040;18.244;2023-03-20T04:00:26;53.30;;;29.70;;
57327;SDS011;43162;51.040;18.244;2023-03-20T04:02:54;47.10;;;27.40;;
57327;SDS011;43162;51.040;18.244;2023-03-20T04:05:21;45.50;;;25.30;;
57327;SDS011;43162;51.040;18.244;2023-03-20T04:07:47;52.10;;;28.70;;
57327;SDS011;43162;51.040;18.244;2023-03-20T04:10:19;50.00;;;27.70;;
57327;SDS011;43162;51.040;18.244;2023-03-20T04:12:44;53.70;;;29.20;;
57327;SDS011;43162;51.040;18.244;2023-03-20T04:15:11;51.30;;;29.10;;
57327;SDS011;43162;51.040;18.244;2023-03-20T04:17:37;44.10;;;26.60;;
57327;SDS011;43162;51.040;18.244;2023-03-20T04:20:03;49.80;;;27.50;;
57327;SDS011;43162;51.040;18.244;2023-03-20T04:22:30;52.90;;;28.60;;
57327;SDS011;43162;51.040;18.244;2023-03-20T04:25:03;54.80;;;27.80;;
57327;SDS011;43162;51.040;18.244;2023-03-20T04:27:29;46.00;;;26.40;;
57327;SDS011;43162;51.040;18.244;2023-03-20T04:29:55;54.70;;;30.60;;
57327;SDS011;43162;51.040;18.244;2023-03-20T04:32:21;46.90;;;26.80;;
57327;SDS011;43162;51.040;18.244;2023-03-20T04:34:46;47.70;;;27.60;;
57327;SDS011;43162;51.040;18.244;2023-03-20T04:37:12;51.40;;;28.20;;
57327;SDS011;43162;51.040;18.244;2023-03-20T04:39:38;49.60;;;28.00;;
57327;SDS011;43162;51.040;18.244;2023-03-20T04:42:06;51.50;;;28.40;;
57327;SDS011;43162;51.040;18.244;2023-03-20T04:44:32;49.90;;;28.10;;
57327;SDS011;43162;51.040;18.244;2023-03-20T04:46:58;53.00;;;27.00;;
57327;SDS011;43162;51.040;18.244;2023-03-20T04:49:25;47.30;;;26.60;;
57327;SDS011;43162;51.040;18.244;2023-03-20T04:51:51;45.00;;;25.80;;
57327;SDS011;43162;51.040;18.244;2023-03-20T04:54:17;52.70;;;27.40;;
57327;SDS011;43162;51.040;18.244;2023-03-20T04:56:44;50.50;;;26.70;;
57327;SDS011;43162;51.040;18.244;2023-03-20T04:59:09;49.10;;;27.40;;
57327;SDS011;43162;51.040;18.244;2023-03-20T05:01:35;46.00;;;27.60;;
57327;SDS011;43162;51.040;18.244;2023-03-20T05:04:00;54.10;;;29.30;;
57327;SDS011;43162;51.040;18.244;2023-03-20T05:06:26;47.70;;;29.80;;
57327;SDS011;43162;51.040;18.244;2023-03-20T05:08:52;48.10;;;27.90;;
57327;SDS011;43162;51.040;18.244;2023-03-20T05:11:18;44.80;;;27.90;;
57327;SDS011;43162;51.040;18.244;2023-03-20T05:13:43;53.00;;;32.50;;
57327;SDS011;43162;51.040;18.244;2023-03-20T05:16:10;50.90;;;30.70;;
57327;SDS011;43162;51.040;18.244;2023-03-20T05:18:36;52.80;;;30.30;;
57327;SDS011;43162;51.040;18.244;2023-03-20T05:21:01;50.90;;;29.90;;
57327;SDS011;43162;51.040;18.244;2023-03-20T05:23:28;52.00;;;31.90;;
57327;SDS011;43162;51.040;18.244;2023-03-20T05:25:54;48.00;;;30.10;;
57327;SDS011;43162;51.040;18.244;2023-03-20T05:28:21;47.90;;;28.70;;
57327;SDS011;43162;51.040;18.244;2023-03-20T05:30:47;49.80;;;30.70;;
57327;SDS011;43162;51.040;18.244;2023-03-20T05:33:12;51.20;;;31.20;;
57327;SDS011;43162;51.040;18.244;2023-03-20T05:35:38;49.40;;;30.50;;
57327;SDS011;43162;51.040;18.244;2023-03-20T05:38:05;47.40;;;29.00;;
57327;SDS011;43162;51.040;18.244;2023-03-20T05:40:30;54.30;;;30.50;;
57327;SDS011;43162;51.040;18.244;2023-03-20T05:42:56;55.90;;;32.20;;
57327;SDS011;43162;51.040;18.244;2023-03-20T05:45:22;55.30;;;34.10;;
57327;SDS011;43162;51.040;18.244;2023-03-20T05:47:47;47.60;;;28.20;;
57327;SDS011;43162;51.040;18.244;2023-03-20T05:50:13;49.30;;;29.50;;
57327;SDS011;43162;51.040;18.244;2023-03-20T05:52:38;50.60;;;29.40;;
57327;SDS011;43162;51.040;18.244;2023-03-20T05:55:04;65.00;;;35.70;;
57327;SDS011;43162;51.040;18.244;2023-03-20T05:57:30;59.70;;;34.40;;
57327;SDS011;43162;51.040;18.244;2023-03-20T05:59:56;63.40;;;37.00;;
57327;SDS011;43162;51.040;18.244;2023-03-20T06:02:21;74.20;;;41.70;;
57327;SDS011;43162;51.040;18.244;2023-03-20T06:04:47;108.60;;;52.40;;
57327;SDS011;43162;51.040;18.244;2023-03-20T06:07:13;105.90;;;51.20;;
57327;SDS011;43162;51.040;18.244;2023-03-20T06:09:39;128.90;;;54.90;;
57327;SDS011;43162;51.040;18.244;2023-03-20T06:12:06;129.70;;;55.80;;
57327;SDS011;43162;51.040;18.244;2023-03-20T06:14:32;107.50;;;51.40;;
57327;SDS011;43162;51.040;18.244;2023-03-20T06:16:58;89.60;;;40.30;;
57327;SDS011;43162;51.040;18.244;2023-03-20T06:19:24;60.30;;;36.10;;
57327;SDS011;43162;51.040;18.244;2023-03-20T06:21:50;64.90;;;37.00;;
57327;SDS011;43162;51.040;18.244;2023-03-20T06:24:16;57.10;;;33.20;;
57327;SDS011;43162;51.040;18.244;2023-03-20T06:26:42;60.90;;;34.30;;
57327;SDS011;43162;51.040;18.244;2023-03-20T06:29:07;50.40;;;30.50;;
57327;SDS011;43162;51.040;18.244;2023-03-20T06:31:33;53.90;;;31.80;;
57327;SDS011;43162;51.040;18.244;2023-03-20T06:33:58;52.20;;;34.30;;
57327;SDS011;43162;51.040;18.244;2023-03-20T06:36:24;51.60;;;31.40;;
57327;SDS011;43162;51.040;18.244;2023-03-20T06:38:50;48.30;;;32.50;;
57327;SDS011;43162;51.040;18.244;2023-03-20T06:41:16;48.30;;;32.50;;
57327;SDS011;43162;51.040;18.244;2023-03-20T06:43:42;56.60;;;33.40;;
57327;SDS011;43162;51.040;18.244;2023-03-20T06:46:08;56.60;;;33.20;;
57327;SDS011;43162;51.040;18.244;2023-03-20T06:48:34;52.00;;;33.80;;
57327;SDS011;43162;51.040;18.244;2023-03-20T06:51:02;44.40;;;28.90;;
57327;SDS011;43162;51.040;18.244;2023-03-20T06:53:28;42.50;;;28.80;;
57327;SDS011;43162;51.040;18.244;2023-03-20T06:55:54;52.10;;;32.50;;
57327;SDS011;43162;51.040;18.244;2023-03-20T06:58:20;49.30;;;31.50;;
57327;SDS011;43162;51.040;18.244;2023-03-20T07:00:45;44.70;;;30.20;;
57327;SDS011;43162;51.040;18.244;2023-03-20T07:03:11;46.90;;;31.60;;
57327;SDS011;43162;51.040;18.244;2023-03-20T07:05:37;49.50;;;31.50;;
57327;SDS011;43162;51.040;18.244;2023-03-20T07:08:04;47.40;;;31.30;;
57327;SDS011;43162;51.040;18.244;2023-03-20T07:10:32;45.50;;;32.00;;
57327;SDS011;43162;51.040;18.244;2023-03-20T07:12:58;42.50;;;29.40;;
57327;SDS011;43162;51.040;18.244;2023-03-20T07:15:25;45.50;;;31.70;;
57327;SDS011;43162;51.040;18.244;2023-03-20T07:17:51;47.40;;;30.00;;
57327;SDS011;43162;51.040;18.244;2023-03-20T07:20:17;43.90;;;29.10;;
57327;SDS011;43162;51.040;18.244;2023-03-20T07:22:43;45.60;;;30.10;;
57327;SDS011;43162;51.040;18.244;2023-03-20T07:25:09;42.40;;;29.90;;
57327;SDS011;43162;51.040;18.244;2023-03-20T07:27:35;42.40;;;30.30;;
57327;SDS011;43162;51.040;18.244;2023-03-20T07:30:03;38.40;;;27.70;;
57327;SDS011;43162;51.040;18.244;2023-03-20T07:32:29;43.00;;;28.30;;
57327;SDS011;43162;51.040;18.244;2023-03-20T07:34:55;49.70;;;32.50;;
57327;SDS011;43162;51.040;18.244;2023-03-20T07:37:20;44.90;;;30.70;;
57327;SDS011;43162;51.040;18.244;2023-03-20T07:39:46;41.40;;;27.60;;
57327;SDS011;43162;51.040;18.244;2023-03-20T07:42:12;35.90;;;27.80;;
57327;SDS011;43162;51.040;18.244;2023-03-20T07:44:41;39.60;;;26.80;;
57327;SDS011;43162;51.040;18.244;2023-03-20T07:47:06;40.50;;;26.90;;
57327;SDS011;43162;51.040;18.244;2023-03-20T07:49:32;37.90;;;26.40;;
57327;SDS011;43162;51.040;18.244;2023-03-20T07:51:58;37.90;;;26.00;;
57327;SDS011;43162;51.040;18.244;2023-03-20T07:54:24;34.20;;;23.10;;
57327;SDS011;43162;51.040;18.244;2023-03-20T07:56:50;35.10;;;24.40;;
57327;SDS011;43162;51.040;18.244;2023-03-20T07:59:16;32.70;;;25.70;;
57327;SDS011;43162;51.040;18.244;2023-03-20T08:01:41;37.60;;;26.30;;
57327;SDS011;43162;51.040;18.244;2023-03-20T08:04:07;36.10;;;25.00;;
57327;SDS011;43162;51.040;18.244;2023-03-20T08:06:33;36.60;;;26.70;;
57327;SDS011;43162;51.040;18.244;2023-03-20T08:08:59;35.70;;;25.70;;
57327;SDS011;43162;51.040;18.244;2023-03-20T08:11:25;39.20;;;26.60;;
57327;SDS011;43162;51.040;18.244;2023-03-20T08:13:51;41.40;;;27.30;;
57327;SDS011;43162;51.040;18.244;2023-03-20T08:16:16;39.40;;;27.20;;
57327;SDS011;43162;51.040;18.244;2023-03-20T08:18:42;36.50;;;25.50;;
57327;SDS011;43162;51.040;18.244;2023-03-20T08:21:07;37.80;;;25.40;;
57327;SDS011;43162;51.040;18.244;2023-03-20T08:23:33;29.80;;;24.40;;
57327;SDS011;43162;51.040;18.244;2023-03-20T08:25:59;44.70;;;25.20;;
57327;SDS011;43162;51.040;18.244;2023-03-20T08:28:25;39.50;;;25.80;;
57327;SDS011;43162;51.040;18.244;2023-03-20T08:30:51;33.40;;;24.40;;
57327;SDS011;43162;51.040;18.244;2023-03-20T08:33:16;35.00;;;27.20;;
57327;SDS011;43162;51.040;18.244;2023-03-20T08:35:43;40.50;;;24.70;;
57327;SDS011;43162;51.040;18.244;2023-03-20T08:38:12;32.50;;;24.90;;
57327;SDS011;43162;51.040;18.244;2023-03-20T08:40:41;34.70;;;25.90;;
57327;SDS011;43162;51.040;18.244;2023-03-20T08:43:07;34.40;;;27.00;;
57327;SDS011;43162;51.040;18.244;2023-03-20T08:45:33;29.70;;;23.20;;
57327;SDS011;43162;51.040;18.244;2023-03-20T08:47:58;30.60;;;24.70;;
57327;SDS011;43162;51.040;18.244;2023-03-20T08:50:24;35.70;;;27.10;;
57327;SDS011;43162;51.040;18.244;2023-03-20T08:52:50;36.30;;;26.50;;
57327;SDS011;43162;51.040;18.244;2023-03-20T08:55:16;36.90;;;24.80;;
57327;SDS011;43162;51.040;18.244;2023-03-20T08:57:42;34.00;;;25.30;;
57327;SDS011;43162;51.040;18.244;2023-03-20T09:00:09;34.40;;;25.00;;
57327;SDS011;43162;51.040;18.244;2023-03-20T09:02:37;29.70;;;21.40;;
57327;SDS011;43162;51.040;18.244;2023-03-20T09:05:03;28.50;;;20.40;;
57327;SDS011;43162;51.040;18.244;2023-03-20T09:07:29;26.00;;;19.00;;
57327;SDS011;43162;51.040;18.244;2023-03-20T09:09:55;26.40;;;19.40;;
57327;SDS011;43162;51.040;18.244;2023-03-20T09:12:20;28.40;;;21.40;;
57327;SDS011;43162;51.040;18.244;2023-03-20T09:14:46;27.10;;;20.20;;
57327;SDS011;43162;51.040;18.244;2023-03-20T09:17:12;26.00;;;18.90;;
57327;SDS011;43162;51.040;18.244;2023-03-20T09:19:37;30.40;;;22.40;;
57327;SDS011;43162;51.040;18.244;2023-03-20T09:22:06;23.80;;;19.30;;
57327;SDS011;43162;51.040;18.244;2023-03-20T09:24:33;27.00;;;21.00;;
57327;SDS011;43162;51.040;18.244;2023-03-20T09:26:59;28.90;;;21.40;;
57327;SDS011;43162;51.040;18.244;2023-03-20T09:29:25;30.30;;;21.60;;
57327;SDS011;43162;51.040;18.244;2023-03-20T09:31:51;28.70;;;21.10;;
57327;SDS011;43162;51.040;18.244;2023-03-20T09:34:18;24.90;;;20.20;;
57327;SDS011;43162;51.040;18.244;2023-03-20T09:36:44;27.30;;;22.40;;
57327;SDS011;43162;51.040;18.244;2023-03-20T09:39:10;32.20;;;22.20;;
57327;SDS011;43162;51.040;18.244;2023-03-20T09:41:36;28.20;;;19.50;;
57327;SDS011;43162;51.040;18.244;2023-03-20T09:44:09;28.50;;;21.20;;
57327;SDS011;43162;51.040;18.244;2023-03-20T09:52:10;29.00;;;20.20;;
57327;SDS011;43162;51.040;18.244;2023-03-20T09:54:41;28.40;;;20.00;;
57327;SDS011;43162;51.040;18.244;2023-03-20T09:57:14;30.40;;;20.20;;
57327;SDS011;43162;51.040;18.244;2023-03-20T09:59:58;32.00;;;23.50;;
57327;SDS011;43162;51.040;18.244;2023-03-20T10:05:33;36.90;;;22.50;;
57327;SDS011;43162;51.040;18.244;2023-03-20T10:08:02;30.70;;;21.90;;
57327;SDS011;43162;51.040;18.244;2023-03-20T10:20:54;28.90;;;19.60;;
57327;SDS011;43162;51.040;18.244;2023-03-20T10:26:19;25.60;;;19.70;;
57327;SDS011;43162;51.040;18.244;2023-03-20T10:36:54;27.30;;;19.00;;
57327;SDS011;43162;51.040;18.244;2023-03-20T10:39:36;25.40;;;17.80;;
57327;SDS011;43162;51.040;18.244;2023-03-20T10:42:37;26.20;;;19.40;;
57327;SDS011;43162;51.040;18.244;2023-03-20T10:45:28;33.00;;;20.40;;
57327;SDS011;43162;51.040;18.244;2023-03-20T10:47:56;26.40;;;19.50;;
57327;SDS011;43162;51.040;18.244;2023-03-20T10:50:27;29.10;;;19.60;;
57327;SDS011;43162;51.040;18.244;2023-03-20T10:52:54;28.90;;;21.70;;
57327;SDS011;43162;51.040;18.244;2023-03-20T10:55:21;26.40;;;20.30;;
57327;SDS011;43162;51.040;18.244;2023-03-20T10:57:51;26.50;;;20.00;;
57327;SDS011;43162;51.040;18.244;2023-03-20T11:00:21;31.10;;;21.60;;
57327;SDS011;43162;51.040;18.244;2023-03-20T11:02:49;26.30;;;19.30;;
57327;SDS011;43162;51.040;18.244;2023-03-20T11:05:22;26.10;;;19.80;;
57327;SDS011;43162;51.040;18.244;2023-03-20T11:08:03;25.70;;;19.70;;
57327;SDS011;43162;51.040;18.244;2023-03-20T11:10:32;24.60;;;18.80;;
57327;SDS011;43162;51.040;18.244;2023-03-20T11:13:22;24.40;;;18.10;;
57327;SDS011;43162;51.040;18.244;2023-03-20T11:15:55;22.70;;;16.90;;
57327;SDS011;43162;51.040;18.244;2023-03-20T11:18:24;24.00;;;17.80;;
57327;SDS011;43162;51.040;18.244;2023-03-20T11:20:52;25.90;;;18.10;;
57327;SDS011;43162;51.040;18.244;2023-03-20T11:23:22;24.40;;;16.90;;
57327;SDS011;43162;51.040;18.244;2023-03-20T11:25:56;22.90;;;17.60;;
57327;SDS011;43162;51.040;18.244;2023-03-20T11:28:29;23.10;;;16.80;;
57327;SDS011;43162;51.040;18.244;2023-03-20T11:31:02;18.90;;;15.60;;
57327;SDS011;43162;51.040;18.244;2023-03-20T11:33:30;24.20;;;18.50;;
57327;SDS011;43162;51.040;18.244;2023-03-20T11:36:35;21.50;;;15.70;;
57327;SDS011;43162;51.040;18.244;2023-03-20T11:39:14;24.40;;;17.70;;
57327;SDS011;43162;51.040;18.244;2023-03-20T11:44:31;21.60;;;18.40;;
57327;SDS011;43162;51.040;18.244;2023-03-20T11:49:33;21.80;;;15.50;;
57327;SDS011;43162;51.040;18.244;2023-03-20T11:52:12;22.00;;;17.50;;
57327;SDS011;43162;51.040;18.244;2023-03-20T11:54:44;21.70;;;18.00;;
57327;SDS011;43162;51.040;18.244;2023-03-20T12:02:40;25.40;;;17.20;;
57327;SDS011;43162;51.040;18.244;2023-03-20T12:08:01;21.50;;;17.10;;
57327;SDS011;43162;51.040;18.244;2023-03-20T12:10:33;21.70;;;17.90;;
57327;SDS011;43162;51.040;18.244;2023-03-20T12:13:13;28.00;;;20.20;;
57327;SDS011;43162;51.040;18.244;2023-03-20T12:16:00;26.50;;;19.00;;
57327;SDS011;43162;51.040;18.244;2023-03-20T12:18:30;26.00;;;18.90;;
57327;SDS011;43162;51.040;18.244;2023-03-20T12:28:57;24.50;;;17.30;;
57327;SDS011;43162;51.040;18.244;2023-03-20T12:33:52;19.30;;;15.60;;
57327;SDS011;43162;51.040;18.244;2023-03-20T12:36:28;22.90;;;16.20;;
57327;SDS011;43162;51.040;18.244;2023-03-20T12:38:56;22.80;;;15.30;;
57327;SDS011;43162;51.040;18.244;2023-03-20T12:41:23;21.80;;;14.00;;
57327;SDS011;43162;51.040;18.244;2023-03-20T12:44:00;24.40;;;17.50;;
57327;SDS011;43162;51.040;18.244;2023-03-20T12:49:17;22.40;;;16.60;;
57327;SDS011;43162;51.040;18.244;2023-03-20T12:51:51;21.90;;;15.20;;
57327;SDS011;43162;51.040;18.244;2023-03-20T13:02:29;20.80;;;15.60;;
57327;SDS011;43162;51.040;18.244;2023-03-20T13:05:06;19.80;;;14.10;;
57327;SDS011;43162;51.040;18.244;2023-03-20T13:07:55;19.50;;;14.40;;
57327;SDS011;43162;51.040;18.244;2023-03-20T13:10:49;22.60;;;15.80;;
57327;SDS011;43162;51.040;18.244;2023-03-20T13:21:34;17.90;;;13.20;;
57327;SDS011;43162;51.040;18.244;2023-03-20T13:26:55;17.50;;;13.10;;
57327;SDS011;43162;51.040;18.244;2023-03-20T13:35:29;18.40;;;13.00;;
57327;SDS011;43162;51.040;18.244;2023-03-20T13:37:58;18.50;;;12.30;;
57327;SDS011;43162;51.040;18.244;2023-03-20T13:40:39;17.80;;;14.50;;
57327;SDS011;43162;51.040;18.244;2023-03-20T13:45:42;20.30;;;15.20;;
57327;SDS011;43162;51.040;18.244;2023-03-20T14:04:15;20.60;;;16.20;;
57327;SDS011;43162;51.040;18.244;2023-03-20T14:06:44;21.10;;;16.50;;
57327;SDS011;43162;51.040;18.244;2023-03-20T14:09:24;21.30;;;15.40;;
57327;SDS011;43162;51.040;18.244;2023-03-20T14:12:10;22.10;;;15.80;;
57327;SDS011;43162;51.040;18.244;2023-03-20T14:17:23;20.20;;;16.70;;
57327;SDS011;43162;51.040;18.244;2023-03-20T14:19:51;21.70;;;14.40;;
57327;SDS011;43162;51.040;18.244;2023-03-20T14:22:19;19.70;;;16.20;;
57327;SDS011;43162;51.040;18.244;2023-03-20T14:27:20;21.70;;;16.50;;
57327;SDS011;43162;51.040;18.244;2023-03-20T14:29:46;19.20;;;15.90;;
57327;SDS011;43162;51.040;18.244;2023-03-20T14:34:48;18.10;;;14.80;;
57327;SDS011;43162;51.040;18.244;2023-03-20T14:39:56;20.20;;;15.40;;
57327;SDS011;43162;51.040;18.244;2023-03-20T14:42:41;18.30;;;14.10;;
57327;SDS011;43162;51.040;18.244;2023-03-20T14:48:02;20.90;;;15.50;;
57327;SDS011;43162;51.040;18.244;2023-03-20T14:53:01;27.70;;;18.30;;
57327;SDS011;43162;51.040;18.244;2023-03-20T14:55:45;21.90;;;18.60;;
57327;SDS011;43162;51.040;18.244;2023-03-20T15:01:03;47.60;;;27.50;;
57327;SDS011;43162;51.040;18.244;2023-03-20T15:03:30;74.80;;;39.00;;
57327;SDS011;43162;51.040;18.244;2023-03-20T15:06:00;66.40;;;35.20;;
57327;SDS011;43162;51.040;18.244;2023-03-20T15:08:30;31.90;;;20.60;;
57327;SDS011;43162;51.040;18.244;2023-03-20T15:10:59;22.60;;;17.80;;
57327;SDS011;43162;51.040;18.244;2023-03-20T15:13:30;26.80;;;18.60;;
57327;SDS011;43162;51.040;18.244;2023-03-20T15:16:02;22.60;;;18.00;;
57327;SDS011;43162;51.040;18.244;2023-03-20T15:18:34;22.10;;;18.20;;
57327;SDS011;43162;51.040;18.244;2023-03-20T15:21:17;24.20;;;19.50;;
57327;SDS011;43162;51.040;18.244;2023-03-20T15:23:46;24.70;;;20.00;;
57327;SDS011;43162;51.040;18.244;2023-03-20T15:26:16;23.00;;;17.60;;
57327;SDS011;43162;51.040;18.244;2023-03-20T15:28:43;34.90;;;21.50;;
57327;SDS011;43162;51.040;18.244;2023-03-20T15:31:24;26.30;;;19.80;;
57327;SDS011;43162;51.040;18.244;2023-03-20T15:33:52;29.00;;;21.30;;
57327;SDS011;43162;51.040;18.244;2023-03-20T15:36:18;36.20;;;22.70;;
57327;SDS011;43162;51.040;18.244;2023-03-20T15:38:47;29.30;;;21.60;;
57327;SDS011;43162;51.040;18.244;2023-03-20T15:41:34;32.80;;;22.00;;
57327;SDS011;43162;51.040;18.244;2023-03-20T15:46:50;51.90;;;30.10;;
57327;SDS011;43162;51.040;18.244;2023-03-20T15:49:16;50.50;;;29.90;;
57327;SDS011;43162;51.040;18.244;2023-03-20T15:51:43;53.40;;;32.40;;
57327;SDS011;43162;51.040;18.244;2023-03-20T15:54:10;62.30;;;37.00;;
57327;SDS011;43162;51.040;18.244;2023-03-20T15:56:38;40.40;;;27.80;;
57327;SDS011;43162;51.040;18.244;2023-03-20T15:59:13;32.50;;;23.10;;
57327;SDS011;43162;51.040;18.244;2023-03-20T16:01:42;31.20;;;23.40;;
57327;SDS011;43162;51.040;18.244;2023-03-20T16:04:10;30.60;;;24.60;;
57327;SDS011;43162;51.040;18.244;2023-03-20T16:06:46;34.80;;;24.30;;
57327;SDS011;43162;51.040;18.244;2023-03-20T16:09:22;38.30;;;27.20;;
57327;SDS011;43162;51.040;18.244;2023-03-20T16:11:54;33.10;;;26.00;;
57327;SDS011;43162;51.040;18.244;2023-03-20T16:14:25;29.20;;;24.10;;
57327;SDS011;43162;51.040;18.244;2023-03-20T16:16:55;35.10;;;25.30;;
57327;SDS011;43162;51.040;18.244;2023-03-20T16:19:24;33.60;;;25.90;;
57327;SDS011;43162;51.040;18.244;2023-03-20T16:24:43;34.00;;;27.10;;
57327;SDS011;43162;51.040;18.244;2023-03-20T16:27:11;36.00;;;21.90;;
57327;SDS011;43162;51.040;18.244;2023-03-20T16:29:41;5.60;;;3.20;;
57327;SDS011;43162;51.040;18.244;2023-03-20T16:32:16;4.10;;;3.40;;
57327;SDS011;43162;51.040;18.244;2023-03-20T16:35:07;4.30;;;3.40;;
57327;SDS011;43162;51.040;18.244;2023-03-20T16:37:42;6.80;;;3.60;;
57327;SDS011;43162;51.040;18.244;2023-03-20T16:40:14;6.40;;;3.80;;
57327;SDS011;43162;51.040;18.244;2023-03-20T16:42:41;7.20;;;4.20;;
57327;SDS011;43162;51.040;18.244;2023-03-20T16:45:15;6.10;;;4.40;;
57327;SDS011;43162;51.040;18.244;2023-03-20T16:48:03;5.90;;;5.10;;
57327;SDS011;43162;51.040;18.244;2023-03-20T16:50:41;10.70;;;6.70;;
57327;SDS011;43162;51.040;18.244;2023-03-20T16:53:09;10.00;;;7.70;;
57327;SDS011;43162;51.040;18.244;2023-03-20T16:55:36;16.40;;;9.60;;
57327;SDS011;43162;51.040;18.244;2023-03-20T16:58:09;17.10;;;12.60;;
57327;SDS011;43162;51.040;18.244;2023-03-20T17:00:51;84.60;;;40.80;;
57327;SDS011;43162;51.040;18.244;2023-03-20T17:06:10;24.50;;;14.90;;
57327;SDS011;43162;51.040;18.244;2023-03-20T17:09:00;30.70;;;18.80;;
57327;SDS011;43162;51.040;18.244;2023-03-20T17:11:34;20.40;;;13.20;;
57327;SDS011;43162;51.040;18.244;2023-03-20T17:14:04;18.00;;;11.90;;
57327;SDS011;43162;51.040;18.244;2023-03-20T17:16:30;18.20;;;12.40;;
57327;SDS011;43162;51.040;18.244;2023-03-20T17:19:01;16.60;;;11.00;;
57327;SDS011;43162;51.040;18.244;2023-03-20T17:21:32;38.00;;;16.20;;
57327;SDS011;43162;51.040;18.244;2023-03-20T17:23:58;60.30;;;22.50;;
57327;SDS011;43162;51.040;18.244;2023-03-20T17:26:24;54.40;;;25.10;;
57327;SDS011;43162;51.040;18.244;2023-03-20T17:28:50;56.60;;;25.90;;
57327;SDS011;43162;51.040;18.244;2023-03-20T17:31:16;37.40;;;21.20;;